Time;durP1;ratioP1;P1;durP2;ratioP2;P2;SDS_P1;SDS_P2;PMS_P1;PMS_P2;Temp;Humidity;BMP_temperature;BMP_pressure;BME280_temperature;BME280_humidity;BME280_pressure;Samples;Min_cycle;Max_cycle;Signal;HPM_P1;HPM_P2
2022/05/07 00:01:19;;;;;;;42.33;29.65;;;12.80;99.90;;;;;;5050591;28;20076;-62
2022/05/07 00:03:46;;;;;;;45.37;33.47;;;12.80;99.90;;;;;;5049289;28;20061;-62
2022/05/07 00:06:11;;;;;;;46.03;32.20;;;12.80;99.90;;;;;;5048508;28;20099;-62
2022/05/07 00:08:37;;;;;;;37.83;31.00;;;12.80;99.90;;;;;;5049962;28;20048;-63
2022/05/07 00:11:03;;;;;;;42.28;29.52;;;12.80;99.90;;;;;;5049266;28;20119;-62
2022/05/07 00:13:28;;;;;;;38.00;29.27;;;12.80;99.90;;;;;;5050639;28;20033;-62
2022/05/07 00:18:38;;;;;;;36.33;26.88;;;12.80;99.90;;;;;;5048567;28;20084;-62
2022/05/07 00:21:05;;;;;;;37.60;30.08;;;12.90;99.90;;;;;;5049557;28;20072;-62
2022/05/07 00:23:30;;;;;;;42.20;31.55;;;12.80;99.90;;;;;;5049663;28;20052;-63
2022/05/07 00:25:56;;;;;;;55.25;34.63;;;12.90;99.90;;;;;;5049832;28;20037;-62
2022/05/07 00:28:22;;;;;;;44.80;33.85;;;12.90;99.90;;;;;;5049728;28;20453;-62
2022/05/07 00:30:48;;;;;;;44.15;32.25;;;12.80;99.90;;;;;;5049951;28;20066;-62
2022/05/07 00:33:14;;;;;;;35.63;29.45;;;12.90;99.90;;;;;;5049389;28;20067;-62
2022/05/07 00:35:39;;;;;;;43.47;32.88;;;12.90;99.90;;;;;;5049666;28;20426;-62
2022/05/07 00:38:05;;;;;;;43.15;30.15;;;12.90;99.90;;;;;;5049959;28;20056;-62
2022/05/07 00:40:31;;;;;;;44.35;29.83;;;12.90;99.90;;;;;;5050239;28;20530;-62
2022/05/07 00:42:56;;;;;;;40.58;31.58;;;12.90;99.90;;;;;;5046907;28;20905;-62
2022/05/07 00:45:22;;;;;;;39.03;29.65;;;12.80;99.90;;;;;;5049653;28;20037;-62
2022/05/07 00:47:48;;;;;;;45.53;34.65;;;12.80;99.90;;;;;;5047540;28;20048;-62
2022/05/07 00:53:00;;;;;;;44.22;32.42;;;12.80;99.90;;;;;;5038253;28;20060;-62
2022/05/07 00:55:28;;;;;;;44.25;33.55;;;12.80;99.90;;;;;;5049535;28;20395;-62
2022/05/07 00:57:55;;;;;;;37.00;30.17;;;12.80;99.90;;;;;;5048989;28;20486;-62
2022/05/07 01:00:21;;;;;;;39.90;30.52;;;12.80;99.90;;;;;;5048902;28;20506;-62
2022/05/07 01:02:47;;;;;;;42.10;31.70;;;12.80;99.90;;;;;;5048308;28;20055;-62
2022/05/07 01:05:13;;;;;;;46.90;33.50;;;12.80;99.90;;;;;;5049338;28;20131;-62
2022/05/07 01:07:38;;;;;;;55.25;38.13;;;12.80;99.90;;;;;;5049108;28;20240;-62
2022/05/07 01:10:05;;;;;;;51.95;36.60;;;12.80;99.90;;;;;;5049139;28;20127;-62
2022/05/07 01:12:31;;;;;;;51.97;37.00;;;12.70;99.90;;;;;;5048918;28;20045;-62
2022/05/07 01:14:57;;;;;;;46.58;35.20;;;12.70;99.90;;;;;;5049034;28;20049;-62
2022/05/07 01:17:25;;;;;;;55.28;36.40;;;12.70;99.90;;;;;;5048311;28;20056;-62
2022/05/07 01:19:52;;;;;;;44.95;35.58;;;12.70;99.90;;;;;;5048829;28;20044;-62
2022/05/07 01:22:19;;;;;;;47.38;31.83;;;12.70;99.90;;;;;;5048573;28;20505;-62
2022/05/07 01:24:45;;;;;;;42.92;34.78;;;12.70;99.90;;;;;;5048414;28;20039;-63
2022/05/07 01:27:10;;;;;;;45.78;33.15;;;12.70;99.90;;;;;;5047973;28;20519;-62
2022/05/07 01:29:36;;;;;;;48.47;34.50;;;12.70;99.90;;;;;;5048063;28;20118;-63
2022/05/07 01:32:02;;;;;;;37.15;28.75;;;12.70;99.90;;;;;;5048236;28;20053;-62
2022/05/07 01:34:28;;;;;;;38.20;30.95;;;12.70;99.90;;;;;;5049237;28;20053;-62
2022/05/07 01:36:53;;;;;;;38.70;31.30;;;12.70;99.90;;;;;;5048336;28;20418;-62
2022/05/07 01:39:19;;;;;;;45.28;33.05;;;12.70;99.90;;;;;;5048491;28;20037;-62
2022/05/07 01:41:44;;;;;;;45.55;33.92;;;12.70;99.90;;;;;;5047734;28;20490;-62
2022/05/07 01:44:10;;;;;;;39.90;31.02;;;12.70;99.90;;;;;;5048640;28;20052;-62
2022/05/07 01:49:20;;;;;;;35.70;29.67;;;12.70;99.90;;;;;;5048113;28;20045;-62
2022/05/07 01:51:46;;;;;;;51.85;33.40;;;12.80;99.90;;;;;;5047096;28;20041;-62
2022/05/07 01:54:11;;;;;;;50.50;33.05;;;12.80;99.90;;;;;;5048019;28;20449;-62
2022/05/07 01:56:37;;;;;;;45.80;30.85;;;12.80;99.90;;;;;;5048169;28;20077;-62
2022/05/07 01:59:02;;;;;;;54.25;34.85;;;12.80;99.90;;;;;;5030400;28;20127;-62
2022/05/07 02:01:28;;;;;;;44.05;33.35;;;12.80;99.90;;;;;;5048339;28;20045;-62
2022/05/07 02:03:54;;;;;;;49.15;33.80;;;12.80;99.90;;;;;;5047500;28;20553;-62
2022/05/07 02:06:19;;;;;;;73.22;45.95;;;12.80;99.90;;;;;;5048195;28;20053;-62
2022/05/07 02:08:45;;;;;;;67.60;40.13;;;12.80;99.90;;;;;;5030453;28;20153;-62
2022/05/07 02:11:10;;;;;;;57.33;36.67;;;12.80;99.90;;;;;;5048590;28;20049;-62
2022/05/07 02:13:36;;;;;;;46.47;33.45;;;12.80;99.90;;;;;;5047594;28;20449;-62
2022/05/07 02:16:02;;;;;;;49.20;34.47;;;12.80;99.90;;;;;;5048287;28;20052;-62
2022/05/07 02:18:27;;;;;;;73.28;41.90;;;12.80;99.90;;;;;;5047766;28;20037;-62
2022/05/07 02:20:53;;;;;;;58.05;39.63;;;12.80;99.90;;;;;;5048120;28;20191;-62
2022/05/07 02:23:19;;;;;;;46.65;33.20;;;12.80;99.90;;;;;;5048342;28;20140;-62
2022/05/07 02:25:45;;;;;;;62.50;37.00;;;12.90;99.90;;;;;;5048186;28;20053;-62
2022/05/07 02:28:11;;;;;;;52.15;35.75;;;12.90;99.90;;;;;;5046982;28;20044;-62
2022/05/07 02:30:36;;;;;;;51.67;36.58;;;12.90;99.90;;;;;;5047953;28;20410;-62
2022/05/07 02:33:02;;;;;;;45.72;34.47;;;12.90;99.90;;;;;;5047444;28;20080;-62
2022/05/07 02:35:28;;;;;;;42.90;33.28;;;12.90;99.90;;;;;;5048132;28;20065;-62
2022/05/07 02:37:54;;;;;;;48.67;32.08;;;12.90;99.90;;;;;;5047271;28;20124;-62
2022/05/07 02:40:20;;;;;;;42.92;33.10;;;12.90;99.90;;;;;;5048095;28;20048;-62
2022/05/07 02:42:45;;;;;;;45.75;32.55;;;12.90;99.90;;;;;;5047151;28;20441;-62
2022/05/07 02:45:13;;;;;;;49.40;34.38;;;12.90;99.90;;;;;;5038712;28;20108;-62
2022/05/07 02:47:41;;;;;;;46.40;35.00;;;12.90;99.90;;;;;;5034866;28;20033;-62
2022/05/07 02:50:09;;;;;;;47.15;34.38;;;12.90;99.90;;;;;;5047843;28;20037;-62
2022/05/07 02:52:36;;;;;;;52.60;36.70;;;12.90;99.90;;;;;;5047812;28;20040;-62
2022/05/07 02:55:03;;;;;;;46.08;37.88;;;12.90;99.90;;;;;;5047311;28;20576;-62
2022/05/07 02:57:29;;;;;;;50.40;38.78;;;12.90;99.90;;;;;;5029006;28;20079;-62
2022/05/07 02:59:55;;;;;;;44.70;36.17;;;12.80;99.90;;;;;;5048187;28;20073;-62
2022/05/07 03:02:21;;;;;;;51.63;38.53;;;12.90;99.90;;;;;;5035692;28;20048;-62
2022/05/07 03:04:47;;;;;;;53.22;34.72;;;12.90;99.90;;;;;;5029775;28;20041;-62
2022/05/07 03:07:13;;;;;;;50.35;38.55;;;12.90;99.90;;;;;;5047276;28;20088;-62
2022/05/07 03:09:39;;;;;;;44.58;34.55;;;12.80;99.90;;;;;;5047761;28;20033;-62
2022/05/07 03:12:05;;;;;;;50.30;38.10;;;12.80;99.90;;;;;;5049308;28;20103;-62
2022/05/07 03:14:32;;;;;;;51.03;38.28;;;12.80;99.90;;;;;;5051296;28;20107;-62
2022/05/07 03:16:58;;;;;;;50.88;35.83;;;12.90;99.90;;;;;;5050541;28;20087;-62
2022/05/07 03:19:24;;;;;;;51.88;37.47;;;12.90;99.90;;;;;;5051531;28;20383;-62
2022/05/07 03:21:49;;;;;;;44.35;34.15;;;12.90;99.90;;;;;;5051261;28;20044;-62
2022/05/07 03:24:15;;;;;;;48.00;35.33;;;12.90;99.90;;;;;;5051048;28;20098;-61
2022/05/07 03:26:40;;;;;;;52.20;36.70;;;12.90;99.90;;;;;;5049949;28;20186;-62
2022/05/07 03:29:06;;;;;;;55.05;38.33;;;12.90;99.90;;;;;;5047560;28;20120;-62
2022/05/07 03:31:32;;;;;;;47.17;35.90;;;12.90;99.90;;;;;;5046059;28;20038;-62
2022/05/07 03:33:58;;;;;;;47.17;36.78;;;12.90;99.90;;;;;;5047454;28;20071;-62
2022/05/07 03:36:23;;;;;;;45.55;35.13;;;12.90;99.90;;;;;;5044580;28;20047;-62
2022/05/07 03:38:49;;;;;;;48.95;38.20;;;12.90;99.90;;;;;;5048700;28;20041;-62
2022/05/07 03:41:19;;;;;;;49.20;35.72;;;12.90;99.90;;;;;;5048027;28;20726;-62
2022/05/07 03:43:45;;;;;;;52.63;37.03;;;12.90;99.90;;;;;;5046594;28;20152;-62
2022/05/07 03:46:11;;;;;;;46.78;36.78;;;12.90;99.90;;;;;;5048236;28;20052;-62
2022/05/07 03:48:37;;;;;;;54.13;40.88;;;12.80;99.90;;;;;;5047713;28;20041;-62
2022/05/07 03:51:03;;;;;;;51.78;39.45;;;12.80;99.90;;;;;;5050346;28;20037;-62
2022/05/07 03:53:31;;;;;;;51.67;38.63;;;12.80;99.90;;;;;;5049688;28;20048;-62
2022/05/07 03:55:57;;;;;;;;;;;12.80;99.90;;;;;;5050057;28;20040;-62
2022/05/07 03:58:23;;;;;;;58.58;39.58;;;12.80;99.90;;;;;;5049240;28;20297;-62
2022/05/07 04:00:49;;;;;;;49.67;38.97;;;12.80;99.90;;;;;;5050443;28;20051;-62
2022/05/07 04:03:14;;;;;;;48.60;37.42;;;12.80;99.90;;;;;;5050473;28;20562;-62
2022/05/07 04:05:40;;;;;;;48.63;38.25;;;12.80;99.90;;;;;;5050040;28;20056;-62
2022/05/07 04:08:06;;;;;;;50.08;39.08;;;12.80;99.90;;;;;;5050084;28;20640;-62
2022/05/07 04:10:32;;;;;;;51.88;38.80;;;12.80;99.90;;;;;;5050613;28;20040;-62
2022/05/07 04:12:57;;;;;;;53.75;39.70;;;12.80;99.90;;;;;;5049046;28;20056;-62
2022/05/07 04:15:23;;;;;;;51.45;38.22;;;12.70;99.90;;;;;;5050099;28;20045;-62
2022/05/07 04:17:50;;;;;;;53.80;38.78;;;12.80;99.90;;;;;;5049987;28;20046;-62
2022/05/07 04:20:16;;;;;;;51.17;38.75;;;12.80;99.90;;;;;;5049731;28;20053;-62
2022/05/07 04:22:42;;;;;;;51.70;38.78;;;12.80;99.90;;;;;;5048732;28;20064;-62
2022/05/07 04:25:10;;;;;;;56.08;40.63;;;12.80;99.90;;;;;;5049866;28;20582;-62
2022/05/07 04:27:35;;;;;;;49.88;37.38;;;12.70;99.90;;;;;;5031809;28;20045;-62
2022/05/07 04:30:02;;;;;;;53.97;40.90;;;12.80;99.90;;;;;;5049859;28;20040;-62
2022/05/07 04:32:28;;;;;;;50.83;39.58;;;12.80;99.90;;;;;;5049458;28;20114;-62
2022/05/07 04:34:57;;;;;;;60.85;41.70;;;12.80;99.90;;;;;;5049886;28;20490;-62
2022/05/07 04:37:23;;;;;;;53.33;39.15;;;12.80;99.90;;;;;;5037547;28;20079;-62
2022/05/07 04:39:49;;;;;;;52.00;39.80;;;12.80;99.90;;;;;;5047936;28;20037;-62
2022/05/07 04:42:15;;;;;;;50.58;40.28;;;12.80;99.90;;;;;;5049711;28;20036;-62
2022/05/07 04:44:41;;;;;;;51.30;41.03;;;12.80;99.90;;;;;;5049763;28;20048;-63
2022/05/07 04:47:07;;;;;;;53.08;40.72;;;12.80;99.90;;;;;;5036256;28;20033;-62
2022/05/07 04:49:33;;;;;;;48.72;37.20;;;12.80;99.90;;;;;;5049698;28;20052;-63
2022/05/07 04:51:59;;;;;;;61.35;43.65;;;12.80;99.90;;;;;;5049036;28;20134;-62
2022/05/07 04:54:25;;;;;;;54.83;41.92;;;12.80;99.90;;;;;;5048687;28;20497;-62
2022/05/07 04:56:52;;;;;;;55.63;43.22;;;12.90;99.90;;;;;;5035768;28;20049;-62
2022/05/07 04:59:19;;;;;;;57.60;43.28;;;12.90;99.90;;;;;;5049251;28;20498;-62
2022/05/07 05:01:45;;;;;;;61.20;42.85;;;12.90;99.90;;;;;;5028072;28;20048;-62
2022/05/07 05:04:13;;;;;;;57.60;44.03;;;12.90;99.90;;;;;;5048207;28;20048;-62
2022/05/07 05:06:39;;;;;;;54.30;41.78;;;13.00;99.90;;;;;;5048088;28;20421;-61
2022/05/07 05:09:06;;;;;;;64.57;42.60;;;13.00;99.90;;;;;;5048904;28;20059;-62
2022/05/07 05:11:33;;;;;;;60.72;43.42;;;13.00;99.90;;;;;;5047835;28;20067;-62
2022/05/07 05:13:59;;;;;;;55.13;40.17;;;13.10;99.90;;;;;;5048911;28;20480;-62
2022/05/07 05:16:26;;;;;;;57.33;42.53;;;13.10;99.90;;;;;;5048597;28;20159;-63
2022/05/07 05:18:52;;;;;;;63.78;42.05;;;13.20;99.90;;;;;;5048763;28;20071;-62
2022/05/07 05:21:18;;;;;;;62.47;46.03;;;13.20;99.90;;;;;;5047571;28;20494;-62
2022/05/07 05:23:46;;;;;;;66.15;46.20;;;13.20;99.90;;;;;;5049041;28;20037;-62
2022/05/07 05:26:15;;;;;;;67.63;48.47;;;13.20;99.90;;;;;;5047052;28;20064;-61
2022/05/07 05:28:42;;;;;;;58.72;45.08;;;13.20;99.90;;;;;;5048892;28;20032;-62
2022/05/07 05:31:09;;;;;;;58.28;45.45;;;13.30;99.90;;;;;;5048436;28;20057;-61
2022/05/07 05:33:35;;;;;;;63.42;48.05;;;13.30;99.90;;;;;;5043082;28;20103;-61
2022/05/07 05:36:00;;;;;;;56.88;43.92;;;13.30;99.90;;;;;;5043797;28;20179;-61
2022/05/07 05:38:26;;;;;;;50.38;40.63;;;13.20;99.90;;;;;;5048905;28;20045;-61
2022/05/07 05:40:52;;;;;;;53.63;41.92;;;13.30;99.90;;;;;;5041855;28;20036;-61
2022/05/07 05:43:18;;;;;;;58.58;45.25;;;13.30;99.90;;;;;;5046874;28;20052;-61
2022/05/07 05:45:44;;;;;;;60.90;46.65;;;13.30;99.90;;;;;;5042098;28;20041;-61
2022/05/07 05:48:10;;;;;;;61.80;45.65;;;13.40;99.90;;;;;;5042466;28;20049;-61
2022/05/07 05:50:35;;;;;;;59.00;47.97;;;13.40;99.90;;;;;;5036457;28;20387;-61
2022/05/07 05:53:01;;;;;;;68.10;51.55;;;13.40;99.90;;;;;;5045495;28;20048;-61
2022/05/07 05:55:27;;;;;;;65.82;49.55;;;13.40;99.90;;;;;;5048113;28;20044;-61
2022/05/07 05:57:53;;;;;;;77.72;51.30;;;13.40;99.90;;;;;;5047976;28;20040;-61
2022/05/07 06:00:19;;;;;;;63.35;48.28;;;13.40;99.90;;;;;;5048942;28;20044;-62
2022/05/07 06:02:45;;;;;;;63.47;48.47;;;13.50;99.90;;;;;;5052072;28;20047;-62
2022/05/07 06:05:11;;;;;;;66.20;48.70;;;13.50;99.90;;;;;;5047649;28;20405;-62
2022/05/07 06:07:37;;;;;;;70.38;48.10;;;13.50;99.90;;;;;;5046767;28;20147;-62
2022/05/07 06:10:03;;;;;;;66.38;50.47;;;13.60;99.90;;;;;;5047342;28;20144;-62
2022/05/07 06:12:30;;;;;;;72.25;52.08;;;13.60;99.90;;;;;;5034766;28;20033;-62
2022/05/07 06:14:56;;;;;;;70.07;48.97;;;13.60;99.90;;;;;;5048397;28;20395;-61
2022/05/07 06:17:22;;;;;;;68.60;49.53;;;13.70;99.90;;;;;;5038985;28;20052;-62
2022/05/07 06:19:48;;;;;;;69.43;49.63;;;13.70;99.90;;;;;;5045948;28;20549;-62
2022/05/07 06:22:13;;;;;;;63.17;49.00;;;13.80;99.90;;;;;;5048169;28;20165;-61
2022/05/07 06:27:30;;;;;;;61.00;46.35;;;13.90;99.90;;;;;;5033836;28;20147;-62
2022/05/07 06:29:56;;;;;;;59.90;45.83;;;14.00;99.90;;;;;;5044255;28;20052;-61
2022/05/07 06:32:23;;;;;;;73.03;45.38;;;14.10;99.90;;;;;;5046191;28;20053;-61
2022/05/07 06:34:49;;;;;;;61.28;45.55;;;14.20;99.90;;;;;;5045193;28;20116;-61
2022/05/07 06:37:15;;;;;;;59.40;45.35;;;14.30;99.90;;;;;;5026177;28;20042;-61
2022/05/07 06:39:41;;;;;;;58.30;41.45;;;14.30;99.90;;;;;;5043610;28;20548;-61
2022/05/07 06:42:07;;;;;;;53.53;42.60;;;14.40;99.90;;;;;;5043170;28;20042;-62
2022/05/07 06:44:33;;;;;;;60.58;40.80;;;14.50;99.90;;;;;;5038776;28;20790;-62
2022/05/07 06:46:59;;;;;;;52.95;40.13;;;14.60;99.90;;;;;;5043999;28;20052;-62
2022/05/07 06:49:25;;;;;;;50.05;40.67;;;14.70;99.90;;;;;;5050506;28;20110;-62
2022/05/07 06:51:51;;;;;;;50.00;38.40;;;14.80;99.90;;;;;;5050393;28;20110;-61
2022/05/07 06:54:17;;;;;;;56.70;37.78;;;15.00;99.90;;;;;;5046534;28;20460;-62
2022/05/07 06:56:42;;;;;;;54.10;40.47;;;15.20;99.90;;;;;;5048234;28;20048;-62
2022/05/07 06:59:10;;;;;;;48.15;36.30;;;15.30;99.90;;;;;;5033141;28;20482;-61
2022/05/07 07:01:36;;;;;;;48.38;37.45;;;15.50;99.90;;;;;;5027684;28;20049;-61
2022/05/07 07:04:02;;;;;;;46.63;36.58;;;15.70;99.90;;;;;;5047663;28;20463;-62
2022/05/07 07:06:28;;;;;;;43.17;36.00;;;15.80;99.90;;;;;;5048517;28;20076;-62
2022/05/07 07:08:53;;;;;;;43.50;36.38;;;15.90;99.90;;;;;;5046509;28;20041;-62
2022/05/07 07:11:22;;;;;;;46.60;35.38;;;15.90;99.90;;;;;;5047154;28;20064;-62
2022/05/07 07:13:51;;;;;;;45.33;36.03;;;15.90;99.90;;;;;;5047122;28;20891;-61
2022/05/07 07:16:16;;;;;;;47.78;37.08;;;16.00;99.90;;;;;;5050212;28;20616;-62
2022/05/07 07:18:43;;;;;;;44.92;34.78;;;16.00;99.90;;;;;;5050396;28;20060;-62
2022/05/07 07:21:09;;;;;;;48.53;37.65;;;16.20;99.90;;;;;;5049734;28;20127;-62
2022/05/07 07:23:34;;;;;;;48.47;38.70;;;16.20;99.90;;;;;;5048109;28;20051;-62
2022/05/07 07:26:00;;;;;;;41.25;33.70;;;16.30;99.90;;;;;;5041881;28;20717;-62
2022/05/07 07:28:25;;;;;;;50.70;37.47;;;16.40;99.90;;;;;;5037865;28;20064;-62
2022/05/07 07:30:51;;;;;;;50.58;36.90;;;16.50;99.90;;;;;;5047359;28;20135;-62
2022/05/07 07:33:25;;;;;;;46.42;37.05;;;16.60;99.90;;;;;;5050004;28;20063;-62
2022/05/07 07:35:51;;;;;;;56.20;38.15;;;16.60;99.90;;;;;;5050842;28;20460;-62
2022/05/07 07:38:16;;;;;;;48.90;36.40;;;16.60;99.90;;;;;;5043666;28;20049;-62
2022/05/07 07:40:44;;;;;;;45.55;35.92;;;16.70;99.90;;;;;;5049557;28;20127;-62
2022/05/07 07:43:10;;;;;;;52.17;36.97;;;16.70;99.90;;;;;;5049669;28;20045;-62
2022/05/07 07:48:21;;;;;;;51.90;36.45;;;16.90;99.90;;;;;;5049547;28;20759;-61
2022/05/07 07:50:50;;;;;;;45.00;36.60;;;17.00;99.90;;;;;;5050178;28;20089;-62
2022/05/07 07:53:16;;;;;;;46.65;34.95;;;17.10;99.90;;;;;;5050506;28;20431;-62
2022/05/07 07:55:41;;;;;;;41.25;32.70;;;17.20;99.90;;;;;;5045823;28;20120;-62
2022/05/07 07:58:08;;;;;;;46.92;34.60;;;17.20;99.90;;;;;;5049858;28;20128;-62
2022/05/07 08:00:36;;;;;;;42.47;35.47;;;17.30;99.90;;;;;;5049465;28;20094;-62
2022/05/07 08:03:04;;;;;;;47.13;37.15;;;17.50;99.90;;;;;;5050506;28;20068;-62
2022/05/07 08:05:31;;;;;;;;;;;17.60;99.90;;;;;;5051389;28;20041;-62
2022/05/07 08:13:26;;;;;;;47.45;33.28;;;17.80;99.90;;;;;;5046115;28;20056;-62
2022/05/07 08:15:52;;;;;;;51.25;33.47;;;17.90;99.90;;;;;;5047375;28;20124;-62
2022/05/07 08:18:19;;;;;;;38.60;31.23;;;18.00;99.90;;;;;;5045202;28;20461;-61
2022/05/07 08:20:45;;;;;;;46.17;33.10;;;18.00;99.90;;;;;;5048976;28;20094;-62
2022/05/07 08:23:11;;;;;;;35.78;27.92;;;18.10;99.90;;;;;;5049405;28;20041;-62
2022/05/07 08:25:37;;;;;;;38.75;27.23;;;18.10;99.90;;;;;;5046169;28;20414;-62
2022/05/07 08:28:04;;;;;;;37.70;26.85;;;18.10;99.90;;;;;;5049486;28;20041;-63
2022/05/07 08:30:30;;;;;;;37.00;26.05;;;18.10;99.90;;;;;;5049366;28;20037;-61
2022/05/07 08:32:56;;;;;;;41.35;27.10;;;18.10;99.90;;;;;;5030942;28;20064;-61
2022/05/07 08:35:21;;;;;;;31.75;25.65;;;18.20;99.90;;;;;;5049592;28;20417;-62
2022/05/07 08:37:47;;;;;;;33.92;24.35;;;18.20;99.90;;;;;;5049674;28;20063;-62
2022/05/07 08:40:17;;;;;;;33.35;23.73;;;18.30;99.90;;;;;;5049854;28;20048;-62
2022/05/07 08:42:44;;;;;;;34.35;25.38;;;18.40;99.90;;;;;;5043785;28;20047;-62
2022/05/07 08:45:12;;;;;;;30.02;21.77;;;18.50;99.90;;;;;;5047560;28;20053;-62
2022/05/07 08:47:38;;;;;;;28.42;22.70;;;18.50;99.90;;;;;;5042582;28;20055;-62
2022/05/07 08:50:07;;;;;;;29.00;20.75;;;18.50;99.90;;;;;;5049468;28;20053;-62
2022/05/07 08:52:34;;;;;;;33.78;24.88;;;18.50;99.90;;;;;;5048074;28;20041;-62
2022/05/07 08:55:01;;;;;;;36.85;24.92;;;18.50;99.90;;;;;;5041315;28;20395;-62
2022/05/07 08:57:29;;;;;;;34.25;25.98;;;18.40;99.90;;;;;;5049399;28;20059;-62
2022/05/07 08:59:55;;;;;;;37.35;25.33;;;18.30;99.90;;;;;;5048936;28;20056;-62
2022/05/07 09:02:21;;;;;;;37.42;23.52;;;18.20;99.90;;;;;;5048204;28;20049;-61
2022/05/07 09:04:57;;;;;;;36.22;25.70;;;18.20;99.90;;;;;;5049223;28;20512;-61
2022/05/07 09:07:23;;;;;;;31.05;23.13;;;18.30;99.90;;;;;;5046935;28;20041;-62
2022/05/07 09:09:51;;;;;;;35.13;26.08;;;18.30;99.90;;;;;;5047028;28;20494;-62
2022/05/07 09:12:29;;;;;;;33.53;23.15;;;18.30;99.90;;;;;;5045797;28;20672;-61
2022/05/07 09:15:04;;;;;;;34.30;21.98;;;18.40;99.90;;;;;;5048894;28;20044;-62
2022/05/07 09:17:29;;;;;;;30.33;22.45;;;18.40;99.90;;;;;;5046794;28;20135;-63
2022/05/07 09:19:55;;;;;;;29.67;23.58;;;18.40;99.90;;;;;;5046014;28;20112;-63
2022/05/07 09:22:21;;;;;;;29.77;23.70;;;18.50;99.90;;;;;;5048456;28;20041;-63
2022/05/07 09:24:54;;;;;;;38.88;21.73;;;18.60;99.90;;;;;;5048873;28;20450;-63
2022/05/07 09:27:20;;;;;;;28.92;21.58;;;18.60;99.90;;;;;;5047126;28;20106;-64
2022/05/07 09:29:46;;;;;;;38.45;22.77;;;18.70;99.90;;;;;;5031612;28;20041;-63
2022/05/07 09:32:16;;;;;;;38.33;24.98;;;18.80;99.90;;;;;;5046993;28;20081;-62
2022/05/07 09:37:36;;;;;;;29.40;21.98;;;18.70;99.90;;;;;;5041643;28;20053;-63
2022/05/07 09:40:08;;;;;;;32.28;20.20;;;18.70;99.90;;;;;;5042382;28;20056;-62
2022/05/07 09:42:34;;;;;;;29.80;22.42;;;18.80;99.90;;;;;;5046588;28;20059;-62
2022/05/07 09:45:01;;;;;;;35.60;24.73;;;18.90;99.90;;;;;;5047651;28;20037;-62
2022/05/07 09:47:30;;;;;;;27.27;21.77;;;18.80;99.90;;;;;;5046644;28;20041;-62
2022/05/07 09:57:30;;;;;;;26.40;17.23;;;19.00;99.90;;;;;;5042157;28;20056;-62
2022/05/07 09:58:15;;;;;;;;;;;19.30;99.90;;;;;;5044430;28;20052;-62
2022/05/07 10:00:54;;;;;;;26.08;19.73;;;19.10;80.90;;;;;;5042301;28;20420;-62
2022/05/07 10:03:47;;;;;;;25.27;17.27;;;19.10;90.50;;;;;;5042633;28;20132;-62
2022/05/07 10:06:25;;;;;;;24.48;18.90;;;19.10;97.00;;;;;;5043917;28;20045;-62
2022/05/07 10:09:09;;;;;;;29.70;20.13;;;19.20;94.90;;;;;;5043156;28;20736;-62
2022/05/07 10:11:36;;;;;;;30.52;20.35;;;19.30;93.30;;;;;;5041294;28;20119;-63
2022/05/07 10:14:01;;;;;;;31.02;22.90;;;19.50;95.40;;;;;;5043443;28;20044;-63
2022/05/07 10:16:31;;;;;;;36.97;24.13;;;19.50;91.80;;;;;;5045562;28;20570;-63
2022/05/07 10:19:07;;;;;;;32.08;23.52;;;19.40;91.00;;;;;;5048308;28;20062;-63
2022/05/07 10:21:33;;;;;;;31.80;24.30;;;19.40;93.30;;;;;;5051673;28;20501;-63
2022/05/07 10:23:58;;;;;;;33.70;23.98;;;19.40;93.80;;;;;;5052554;28;20052;-62
2022/05/07 10:26:41;;;;;;;33.10;25.52;;;19.50;97.50;;;;;;5051410;28;20052;-62
2022/05/07 10:29:19;;;;;;;37.40;27.77;;;19.60;97.30;;;;;;5052398;28;20040;-62
2022/05/07 10:31:45;;;;;;;41.75;29.70;;;19.70;99.90;;;;;;5048787;28;20083;-62
2022/05/07 10:34:11;;;;;;;39.90;30.20;;;19.80;98.60;;;;;;5051640;28;20053;-62
2022/05/07 10:36:37;;;;;;;35.75;27.88;;;19.90;97.50;;;;;;5051710;28;20449;-63
2022/05/07 10:39:08;;;;;;;34.95;26.10;;;20.10;97.80;;;;;;5052082;28;20036;-63
2022/05/07 10:41:47;;;;;;;36.00;24.58;;;20.10;98.40;;;;;;5044383;28;20082;-62
2022/05/07 10:44:38;;;;;;;37.70;24.55;;;20.30;95.70;;;;;;5052253;28;20429;-63
2022/05/07 10:47:15;;;;;;;38.00;27.83;;;20.30;91.90;;;;;;5050908;28;20044;-63
2022/05/07 10:50:06;;;;;;;40.53;26.70;;;20.40;86.50;;;;;;5021253;28;20049;-64
2022/05/07 10:52:34;;;;;;;30.52;24.42;;;20.50;79.20;;;;;;5051992;28;20158;-61
2022/05/07 10:55:03;;;;;;;;;;;20.50;89.90;;;;;;5052301;28;20098;-62
2022/05/07 10:57:37;;;;;;;33.33;25.02;;;20.50;90.80;;;;;;5050988;28;19947;-62
2022/05/07 11:00:07;;;;;;;30.33;23.65;;;20.50;88.30;;;;;;5052186;28;20395;-62
2022/05/07 11:02:34;;;;;;;40.28;26.67;;;20.50;89.00;;;;;;5051739;28;20055;-62
2022/05/07 11:04:59;;;;;;;36.28;26.83;;;20.50;88.00;;;;;;5051871;28;20048;-62
2022/05/07 11:07:27;;;;;;;32.55;23.27;;;20.60;87.40;;;;;;5048899;28;20037;-61
2022/05/07 11:09:53;;;;;;;33.13;24.38;;;20.60;89.60;;;;;;5050079;28;20045;-61
2022/05/07 11:12:21;;;;;;;35.72;22.02;;;20.80;85.40;;;;;;5049736;28;20060;-61
2022/05/07 11:14:47;;;;;;;36.55;29.25;;;20.70;84.00;;;;;;5050098;28;20094;-62
2022/05/07 11:17:12;;;;;;;38.30;29.80;;;20.80;84.70;;;;;;5050428;28;20037;-61
2022/05/07 11:19:38;;;;;;;35.08;26.20;;;20.70;86.80;;;;;;5045156;28;20048;-62
2022/05/07 11:22:10;;;;;;;44.17;22.27;;;20.90;85.70;;;;;;5038857;28;20037;-61
2022/05/07 11:24:36;;;;;;;48.00;26.02;;;21.00;89.00;;;;;;5048240;28;20036;-62
2022/05/07 11:27:05;;;;;;;51.28;27.83;;;21.00;83.90;;;;;;5051866;28;20044;-63
2022/05/07 11:29:32;;;;;;;28.98;24.13;;;21.00;86.20;;;;;;5046650;28;20071;-63
2022/05/07 11:32:00;;;;;;;35.90;22.98;;;21.10;86.20;;;;;;5050287;28;20049;-63
2022/05/07 11:34:31;;;;;;;32.95;22.55;;;21.30;84.30;;;;;;5051190;28;20052;-63
2022/05/07 11:37:21;;;;;;;33.55;24.23;;;21.30;83.00;;;;;;5050917;28;20052;-62
2022/05/07 11:39:58;;;;;;;35.03;23.92;;;21.50;75.80;;;;;;5049005;28;20040;-61
2022/05/07 11:42:26;;;;;;;44.60;25.95;;;21.50;80.10;;;;;;5050584;28;20044;-61
2022/05/07 11:47:53;;;;;;;31.08;25.58;;;21.50;76.60;;;;;;5038014;28;20073;-61
2022/05/07 11:50:22;;;;;;;32.55;23.63;;;21.40;73.80;;;;;;5049252;28;20048;-63
2022/05/07 11:52:48;;;;;;;46.03;32.55;;;21.40;77.40;;;;;;5044190;28;20052;-62
2022/05/07 11:55:14;;;;;;;44.05;36.13;;;21.50;80.40;;;;;;5050834;28;20049;-63
2022/05/07 11:57:44;;;;;;;47.80;34.40;;;21.60;84.60;;;;;;5049999;28;20049;-63
2022/05/07 12:00:30;;;;;;;55.42;35.63;;;21.60;82.80;;;;;;5048716;28;20053;-62
2022/05/07 12:03:01;;;;;;;45.83;34.22;;;21.60;85.10;;;;;;5047767;28;20053;-62
2022/05/07 12:05:37;;;;;;;54.80;38.63;;;21.60;83.70;;;;;;5049549;28;20045;-62
2022/05/07 12:08:12;;;;;;;56.03;40.10;;;21.60;80.90;;;;;;5050628;28;20040;-62
2022/05/07 12:10:38;;;;;;;55.03;39.08;;;21.50;84.70;;;;;;5049162;28;20044;-62
2022/05/07 12:13:03;;;;;;;66.38;47.03;;;21.70;90.00;;;;;;5050126;28;20043;-62
2022/05/07 12:18:14;;;;;;;52.63;38.80;;;21.70;89.00;;;;;;5047340;28;20037;-62
2022/05/07 12:20:40;;;;;;;51.78;37.20;;;21.90;90.00;;;;;;5047294;28;20043;-62
2022/05/07 12:31:18;;;;;;;47.28;35.03;;;22.10;82.70;;;;;;5058602;28;20057;-62
2022/05/07 12:33:44;;;;;;;49.80;35.20;;;22.10;82.90;;;;;;5048354;28;20098;-63
2022/05/07 12:36:09;;;;;;;50.65;34.33;;;22.10;82.90;;;;;;5057682;28;20049;-62
2022/05/07 12:38:35;;;;;;;46.45;34.17;;;22.10;80.50;;;;;;5051888;28;20627;-63
2022/05/07 12:41:01;;;;;;;50.00;37.85;;;22.00;80.30;;;;;;5048429;28;20052;-62
2022/05/07 12:43:28;;;;;;;45.45;35.05;;;21.90;79.50;;;;;;5044947;28;20049;-62
2022/05/07 12:45:54;;;;;;;55.22;38.97;;;21.70;81.70;;;;;;5049131;28;20049;-62
2022/05/07 12:48:20;;;;;;;47.60;30.95;;;22.00;84.80;;;;;;5048185;28;20037;-62
2022/05/07 12:50:48;;;;;;;61.50;43.47;;;22.00;83.80;;;;;;5037765;28;20052;-62
2022/05/07 12:53:15;;;;;;;53.00;39.20;;;21.90;80.90;;;;;;5045952;28;20405;-62
2022/05/07 12:55:42;;;;;;;58.13;38.90;;;21.90;81.50;;;;;;5045765;28;20056;-62
2022/05/07 12:58:11;;;;;;;51.28;36.92;;;21.80;83.30;;;;;;5038954;28;20488;-62
2022/05/07 13:00:37;;;;;;;65.43;41.67;;;21.70;82.80;;;;;;5049368;28;20041;-63
2022/05/07 13:03:03;;;;;;;48.17;35.38;;;21.60;83.70;;;;;;5049603;28;20508;-62
2022/05/07 13:05:30;;;;;;;55.30;40.17;;;21.60;85.30;;;;;;5049372;28;20045;-63
2022/05/07 13:07:56;;;;;;;68.87;41.23;;;21.60;86.30;;;;;;5047916;28;20080;-62
2022/05/07 13:10:22;;;;;;;56.33;38.13;;;21.60;86.70;;;;;;5049067;28;20041;-62